createdAt,value
2022-08-31T00:01:48.995Z,56.42
2022-08-31T00:04:15.662Z,56.96
2022-08-31T00:06:42.229Z,57.06
2022-08-31T00:09:08.731Z,57.23
2022-08-31T00:11:36.234Z,57.52
2022-08-31T00:14:11.482Z,57.36
2022-08-31T00:16:42.148Z,57.24
2022-08-31T00:19:09.088Z,57.48
2022-08-31T00:21:35.663Z,57.59
2022-08-31T00:24:02.330Z,58.30
2022-08-31T00:26:28.852Z,58.20
2022-08-31T00:28:55.369Z,58.23
2022-08-31T00:31:22.041Z,58.52
2022-08-31T00:33:52.374Z,58.27
2022-08-31T00:36:21.977Z,58.76
2022-08-31T00:38:49.568Z,58.04
2022-08-31T00:41:19.482Z,58.41
2022-08-31T00:43:52.839Z,59.01
2022-08-31T00:46:22.355Z,58.89
2022-08-31T00:49:00.941Z,59.09
2022-08-31T00:51:30.362Z,59.13
2022-08-31T00:53:58.145Z,59.11
2022-08-31T00:56:25.898Z,59.05
2022-08-31T00:58:54.348Z,59.08
2022-08-31T01:01:22.235Z,59.06
2022-08-31T01:03:49.230Z,58.68
2022-08-31T01:07:14.942Z,58.95
2022-08-31T01:09:43.519Z,58.86
2022-08-31T01:12:22.448Z,58.93
2022-08-31T01:14:49.158Z,58.99
2022-08-31T01:17:17.634Z,59.03
2022-08-31T01:19:54.284Z,59.14
2022-08-31T01:22:30.587Z,58.73
2022-08-31T01:24:58.849Z,59.09
2022-08-31T01:27:33.898Z,59.29
2022-08-31T01:30:06.195Z,59.24
2022-08-31T01:32:32.706Z,59.37
2022-08-31T01:34:59.306Z,59.27
2022-08-31T01:37:29.520Z,59.28
2022-08-31T01:39:57.195Z,59.92
2022-08-31T01:42:23.688Z,59.44
2022-08-31T01:44:59.882Z,59.81
2022-08-31T01:47:26.414Z,59.84
2022-08-31T01:49:52.988Z,60.11
2022-08-31T01:52:27.567Z,60.58
2022-08-31T01:54:54.900Z,61.35
2022-08-31T01:57:33.442Z,60.69
2022-08-31T02:00:05.778Z,60.45
2022-08-31T02:02:32.477Z,60.47
2022-08-31T02:04:59.111Z,60.69
2022-08-31T02:07:25.815Z,60.51
2022-08-31T02:09:53.688Z,60.18
2022-08-31T02:12:20.170Z,61.13
2022-08-31T02:14:46.677Z,61.18
2022-08-31T02:17:13.246Z,60.63
2022-08-31T02:19:39.740Z,60.47
2022-08-31T02:22:06.359Z,60.49
2022-08-31T02:24:32.851Z,60.43
2022-08-31T02:26:59.464Z,60.98
2022-08-31T02:29:26.125Z,60.42
2022-08-31T02:31:52.763Z,60.71
2022-08-31T02:34:19.329Z,60.70
2022-08-31T02:36:45.953Z,60.32
2022-08-31T02:39:13.683Z,60.72
2022-08-31T02:41:41.707Z,61.01
2022-08-31T02:44:08.417Z,60.68
2022-08-31T02:46:35.313Z,60.77
2022-08-31T02:49:02.428Z,60.55
2022-08-31T02:51:29.653Z,60.17
2022-08-31T02:53:56.140Z,60.47
2022-08-31T02:56:23.828Z,60.27
2022-08-31T02:58:54.889Z,60.85
2022-08-31T03:01:23.843Z,61.22
2022-08-31T03:03:50.837Z,61.12
2022-08-31T03:06:19.255Z,61.09
2022-08-31T03:08:47.417Z,61.25
2022-08-31T03:11:14.670Z,60.85
2022-08-31T03:13:42.165Z,61.17
2022-08-31T03:16:09.787Z,61.17
2022-08-31T03:18:36.369Z,61.73
2022-08-31T03:21:02.889Z,61.37
2022-08-31T03:23:29.477Z,61.75
2022-08-31T03:25:56.037Z,62.01
2022-08-31T03:28:22.587Z,61.95
2022-08-31T03:30:49.112Z,62.08
2022-08-31T03:33:16.094Z,62.22
2022-08-31T03:35:44.256Z,61.91
2022-08-31T03:38:12.928Z,62.07
2022-08-31T03:40:44.207Z,62.34
2022-08-31T03:43:11.612Z,62.36
2022-08-31T03:45:42.061Z,63.21
2022-08-31T03:48:12.863Z,63.28
2022-08-31T03:50:41.056Z,62.56
2022-08-31T03:53:09.174Z,62.38
2022-08-31T03:55:38.169Z,62.35
2022-08-31T03:58:05.276Z,62.35
2022-08-31T04:00:33.108Z,61.90
2022-08-31T04:03:00.342Z,61.93
2022-08-31T04:05:29.268Z,62.20
2022-08-31T04:07:56.378Z,62.16
2022-08-31T04:10:23.120Z,62.61
2022-08-31T04:12:50.514Z,62.29
2022-08-31T04:15:18.065Z,62.46
2022-08-31T04:17:45.888Z,62.97
2022-08-31T04:20:12.942Z,63.26
2022-08-31T04:22:39.545Z,62.96
2022-08-31T04:25:06.694Z,62.54
2022-08-31T04:27:33.192Z,63.02
2022-08-31T04:29:59.762Z,62.94
2022-08-31T04:32:26.630Z,63.12
2022-08-31T04:34:56.386Z,63.22
2022-08-31T04:37:23.522Z,62.65
2022-08-31T04:39:52.247Z,63.06
2022-08-31T04:42:19.409Z,62.69
2022-08-31T04:44:45.996Z,62.79
2022-08-31T04:47:12.473Z,62.96
2022-08-31T04:49:39.352Z,62.59
2022-08-31T04:52:06.686Z,62.30
2022-08-31T04:54:33.154Z,62.13
2022-08-31T04:56:59.735Z,62.61
2022-08-31T04:59:27.441Z,62.63
2022-08-31T05:01:55.571Z,62.73
2022-08-31T05:04:24.566Z,62.64
2022-08-31T05:06:51.179Z,62.60
2022-08-31T05:09:21.814Z,62.63
2022-08-31T05:11:50.429Z,62.85
2022-08-31T05:14:17.187Z,62.68
2022-08-31T05:16:44.131Z,62.88
2022-08-31T05:19:11.154Z,62.36
2022-08-31T05:21:40.974Z,62.56
2022-08-31T05:24:11.105Z,63.44
2022-08-31T05:26:42.143Z,62.90
2022-08-31T05:29:09.661Z,62.92
2022-08-31T05:31:39.168Z,62.78
2022-08-31T05:34:06.735Z,62.38
2022-08-31T05:36:34.343Z,61.72
2022-08-31T05:39:02.034Z,62.06
2022-08-31T05:41:29.942Z,61.83
2022-08-31T05:43:56.702Z,62.14
2022-08-31T05:46:23.530Z,61.30
2022-08-31T05:48:50.246Z,61.32
2022-08-31T05:51:18.520Z,60.92
2022-08-31T05:53:45.898Z,60.92
2022-08-31T05:56:15.532Z,61.02
2022-08-31T05:58:46.732Z,61.26
2022-08-31T06:01:32.498Z,60.81
2022-08-31T06:03:59.990Z,60.24
2022-08-31T06:06:26.851Z,60.09
2022-08-31T06:08:53.367Z,60.13
2022-08-31T06:11:23.714Z,60.87
2022-08-31T06:13:52.697Z,60.89
2022-08-31T06:16:21.091Z,60.03
2022-08-31T06:18:50.902Z,60.50
2022-08-31T06:21:30.919Z,59.73
2022-08-31T06:23:58.190Z,58.83
2022-08-31T06:26:27.878Z,58.27
2022-08-31T06:28:57.397Z,57.71
2022-08-31T06:31:33.908Z,57.40
2022-08-31T06:34:02.093Z,57.00
2022-08-31T06:36:31.218Z,56.33
2022-08-31T06:38:59.788Z,55.77
2022-08-31T06:41:32.157Z,55.62
2022-08-31T06:44:02.143Z,55.02
2022-08-31T06:46:29.775Z,54.92
2022-08-31T06:48:57.396Z,53.78
2022-08-31T06:51:24.776Z,52.56
2022-08-31T06:53:52.619Z,52.87
2022-08-31T06:56:22.083Z,52.72
2022-08-31T06:58:53.800Z,51.96
2022-08-31T07:01:34.902Z,52.37
2022-08-31T07:04:06.216Z,52.05
2022-08-31T07:06:36.729Z,50.95
2022-08-31T07:09:06.759Z,50.39
2022-08-31T07:11:44.595Z,49.32
2022-08-31T07:14:14.397Z,48.85
2022-08-31T07:16:42.176Z,48.57
2022-08-31T07:19:09.035Z,46.96
2022-08-31T07:21:40.780Z,45.97
2022-08-31T07:24:08.051Z,44.97
2022-08-31T07:26:38.165Z,43.84
2022-08-31T07:29:06.473Z,44.05
2022-08-31T07:31:44.747Z,44.13
2022-08-31T07:34:14.693Z,43.36
2022-08-31T07:36:59.881Z,43.52
2022-08-31T07:39:46.638Z,42.40
2022-08-31T07:42:16.233Z,43.23
2022-08-31T07:44:42.755Z,41.66
2022-08-31T07:47:22.542Z,40.69
2022-08-31T07:49:52.942Z,40.20
2022-08-31T07:52:28.811Z,40.37
2022-08-31T07:55:04.895Z,39.53
2022-08-31T07:57:36.265Z,39.22
2022-08-31T08:00:08.529Z,38.88
2022-08-31T08:02:39.225Z,38.78
2022-08-31T08:05:08.501Z,37.81
2022-08-31T08:07:36.973Z,37.26
2022-08-31T08:10:13.972Z,36.22
2022-08-31T08:12:43.047Z,35.00
2022-08-31T08:15:10.389Z,34.37
2022-08-31T08:17:36.948Z,33.67
2022-08-31T08:20:04.460Z,34.28
2022-08-31T08:22:51.550Z,34.30
2022-08-31T08:25:18.613Z,34.58
2022-08-31T08:27:55.694Z,33.53
2022-08-31T08:30:22.662Z,32.92
2022-08-31T08:32:49.177Z,32.93
2022-08-31T08:35:16.515Z,32.19
2022-08-31T08:37:58.493Z,33.49
2022-08-31T08:40:44.196Z,33.78
2022-08-31T08:43:15.917Z,33.13
2022-08-31T08:45:50.306Z,32.66
2022-08-31T08:48:22.326Z,31.12
2022-08-31T08:50:52.877Z,32.10
2022-08-31T08:53:24.550Z,32.38
2022-08-31T08:55:51.813Z,31.69
2022-08-31T08:58:19.289Z,31.39
2022-08-31T09:00:54.541Z,32.65
2022-08-31T09:03:44.340Z,31.87
2022-08-31T09:06:15.344Z,31.59
2022-08-31T09:09:12.581Z,31.76
2022-08-31T09:12:05.025Z,32.57
2022-08-31T09:14:38.186Z,33.25
2022-08-31T09:17:19.808Z,32.82
2022-08-31T09:20:05.660Z,35.10
2022-08-31T09:22:57.157Z,34.18
2022-08-31T09:25:33.185Z,33.75
2022-08-31T09:28:03.516Z,34.93
2022-08-31T09:30:44.915Z,35.68
2022-08-31T09:33:35.609Z,36.04
2022-08-31T09:36:22.629Z,35.24
2022-08-31T09:38:49.916Z,33.93
2022-08-31T09:41:36.451Z,33.58
2022-08-31T09:44:32.876Z,33.54
2022-08-31T09:47:02.988Z,34.25
2022-08-31T09:49:39.336Z,34.54
2022-08-31T09:52:42.849Z,34.60
2022-08-31T09:55:13.678Z,32.33
2022-08-31T09:57:50.523Z,31.10
2022-08-31T10:00:26.438Z,30.11
2022-08-31T10:02:58.314Z,28.50
2022-08-31T10:05:40.635Z,28.30
2022-08-31T10:08:33.231Z,27.38
2022-08-31T10:11:11.498Z,29.45
2022-08-31T10:13:42.319Z,30.28
2022-08-31T10:16:26.144Z,30.67
2022-08-31T10:19:03.313Z,32.74
2022-08-31T10:21:53.457Z,32.69
2022-08-31T10:24:28.849Z,31.06
2022-08-31T10:27:02.951Z,31.18
2022-08-31T10:29:46.074Z,32.80
2022-08-31T10:32:27.756Z,34.25
2022-08-31T10:35:05.829Z,34.67
2022-08-31T10:37:50.442Z,35.13
2022-08-31T10:40:23.458Z,33.94
2022-08-31T10:43:08.679Z,34.11
2022-08-31T10:45:43.746Z,34.54
2022-08-31T10:48:12.857Z,34.82
2022-08-31T10:50:51.700Z,33.72
2022-08-31T10:53:50.614Z,32.92
2022-08-31T10:56:32.350Z,34.14
2022-08-31T10:59:08.534Z,34.66
2022-08-31T11:01:42.199Z,34.62
2022-08-31T11:04:29.255Z,35.46
2022-08-31T11:06:55.734Z,35.54
2022-08-31T11:09:33.259Z,35.55
2022-08-31T11:12:07.130Z,33.33
2022-08-31T11:14:58.509Z,32.59
2022-08-31T11:17:40.234Z,32.59
2022-08-31T11:20:39.869Z,32.64
2022-08-31T11:23:19.953Z,34.10
2022-08-31T11:26:01.678Z,34.20
2022-08-31T11:28:48.925Z,34.21
2022-08-31T11:31:25.596Z,33.44
2022-08-31T11:34:15.090Z,32.38
2022-08-31T11:36:43.900Z,32.36
2022-08-31T11:39:10.294Z,31.23
2022-08-31T11:41:36.777Z,31.96
2022-08-31T11:44:05.001Z,33.62
2022-08-31T11:46:36.239Z,34.42
2022-08-31T11:49:02.838Z,34.90
2022-08-31T11:51:42.463Z,34.15
2022-08-31T11:54:41.541Z,29.70
2022-08-31T11:57:15.907Z,29.89
2022-08-31T11:59:46.101Z,32.05
2022-08-31T12:02:35.728Z,32.49
2022-08-31T12:05:03.968Z,31.42
2022-08-31T12:07:36.569Z,30.86
2022-08-31T12:10:14.912Z,32.19
2022-08-31T12:12:51.259Z,33.28
2022-08-31T12:15:58.702Z,33.49
2022-08-31T12:18:56.169Z,33.67
2022-08-31T12:21:56.331Z,33.13
2022-08-31T12:24:22.747Z,33.24
2022-08-31T12:26:58.038Z,33.01
2022-08-31T12:29:30.304Z,32.83
2022-08-31T12:32:36.246Z,32.71
2022-08-31T12:35:08.614Z,32.75
2022-08-31T12:37:37.648Z,33.54
2022-08-31T12:40:20.421Z,34.15
2022-08-31T12:42:55.965Z,34.07
2022-08-31T12:45:39.888Z,33.21
2022-08-31T12:48:24.329Z,33.57
2022-08-31T12:51:14.151Z,33.49
2022-08-31T12:54:01.012Z,33.60
2022-08-31T12:57:02.358Z,34.02
2022-08-31T13:00:01.190Z,34.11
2022-08-31T13:02:32.873Z,33.84
2022-08-31T13:05:00.414Z,33.25
2022-08-31T13:07:34.807Z,32.67
2022-08-31T13:10:05.470Z,32.29
2022-08-31T13:12:32.051Z,32.29
2022-08-31T13:14:58.598Z,32.01
2022-08-31T13:17:25.235Z,32.13
2022-08-31T13:19:54.955Z,31.63
2022-08-31T13:22:31.477Z,32.15
2022-08-31T13:25:13.243Z,32.14
2022-08-31T13:27:47.955Z,33.01
2022-08-31T13:30:18.951Z,33.19
2022-08-31T13:32:51.397Z,32.76
2022-08-31T13:35:25.673Z,32.61
2022-08-31T13:38:04.998Z,32.04
2022-08-31T13:40:39.490Z,31.89
2022-08-31T13:43:09.248Z,31.92
2022-08-31T13:45:53.065Z,32.50
2022-08-31T13:48:33.343Z,32.52
2022-08-31T13:51:07.279Z,33.00
2022-08-31T13:53:41.269Z,32.37
2022-08-31T13:56:53.716Z,32.20
2022-08-31T13:59:29.216Z,31.67
2022-08-31T14:01:55.966Z,32.55
2022-08-31T14:04:58.170Z,32.63
2022-08-31T14:07:25.952Z,32.35
2022-08-31T14:09:56.074Z,31.93
2022-08-31T14:12:46.066Z,31.92
2022-08-31T14:15:19.830Z,32.37
2022-08-31T14:21:21.111Z,32.25
2022-08-31T14:24:01.252Z,31.98
2022-08-31T14:26:31.540Z,31.88
2022-08-31T14:29:01.482Z,31.65
2022-08-31T14:31:40.175Z,31.55
2022-08-31T14:34:23.578Z,32.31
2022-08-31T14:37:06.333Z,33.26
2022-08-31T14:39:42.508Z,33.81
2022-08-31T14:42:20.161Z,33.45
2022-08-31T14:44:56.667Z,33.75
2022-08-31T14:47:25.536Z,33.02
2022-08-31T14:49:52.145Z,33.46
2022-08-31T14:52:18.772Z,32.80
2022-08-31T14:54:46.010Z,32.50
2022-08-31T14:57:15.710Z,32.12
2022-08-31T14:59:44.682Z,32.47
2022-08-31T15:02:13.955Z,33.28
2022-08-31T15:04:45.384Z,33.17
2022-08-31T15:07:13.760Z,33.02
2022-08-31T15:09:43.216Z,32.85
2022-08-31T15:12:14.691Z,32.60
2022-08-31T15:14:42.199Z,32.62
2022-08-31T15:17:13.054Z,32.52
2022-08-31T15:19:46.099Z,32.94
2022-08-31T15:22:15.682Z,32.31
2022-08-31T15:24:44.818Z,32.04
2022-08-31T15:27:13.534Z,32.01
2022-08-31T15:29:41.181Z,32.39
2022-08-31T15:32:10.368Z,31.70
2022-08-31T15:34:38.443Z,30.83
2022-08-31T15:37:06.989Z,31.11
2022-08-31T15:39:37.311Z,31.26
2022-08-31T15:42:09.266Z,31.95
2022-08-31T15:44:40.170Z,31.28
2022-08-31T15:47:28.366Z,31.42
2022-08-31T15:49:56.151Z,31.47
2022-08-31T15:52:25.721Z,31.54
2022-08-31T15:54:52.347Z,31.10
2022-08-31T15:57:18.901Z,31.62
2022-08-31T15:59:45.554Z,31.29
2022-08-31T16:02:13.761Z,31.77
2022-08-31T16:04:45.959Z,31.58
2022-08-31T16:07:13.051Z,31.21
2022-08-31T16:09:46.053Z,31.32
2022-08-31T16:12:14.484Z,30.67
2022-08-31T16:14:44.349Z,30.81
2022-08-31T16:17:19.858Z,30.75
2022-08-31T16:19:47.684Z,31.19
2022-08-31T16:22:14.477Z,31.56
2022-08-31T16:24:41.921Z,31.36
2022-08-31T16:27:11.994Z,31.37
2022-08-31T16:29:39.190Z,31.70
2022-08-31T16:32:06.910Z,32.04
2022-08-31T16:34:34.668Z,31.88
2022-08-31T16:37:07.715Z,32.13
2022-08-31T16:39:36.081Z,31.78
2022-08-31T16:42:04.442Z,32.22
2022-08-31T16:44:36.521Z,32.25
2022-08-31T16:47:04.929Z,32.42
2022-08-31T16:49:34.005Z,32.25
2022-08-31T16:52:03.288Z,33.17
2022-08-31T16:54:30.244Z,33.84
2022-08-31T16:56:57.565Z,34.61
2022-08-31T16:59:27.261Z,34.99
2022-08-31T17:01:53.889Z,36.10
2022-08-31T17:04:41.475Z,36.08
2022-08-31T17:07:10.719Z,36.70
2022-08-31T17:09:39.428Z,37.34
2022-08-31T17:12:10.127Z,37.72
2022-08-31T17:14:51.219Z,37.90
2022-08-31T17:17:20.994Z,37.85
2022-08-31T17:19:47.992Z,38.02
2022-08-31T17:22:23.413Z,37.57
2022-08-31T17:24:52.115Z,37.99
2022-08-31T17:27:20.980Z,38.54
2022-08-31T17:29:51.709Z,38.45
2022-08-31T17:32:21.366Z,39.72
2022-08-31T17:34:51.908Z,40.29
2022-08-31T17:37:36.258Z,40.97
2022-08-31T17:40:07.749Z,40.43
2022-08-31T17:42:34.871Z,40.33
2022-08-31T17:45:05.048Z,40.65
2022-08-31T17:47:33.021Z,41.12
2022-08-31T17:49:59.999Z,41.42
2022-08-31T17:52:26.517Z,41.43
2022-08-31T17:54:53.002Z,41.50
2022-08-31T17:57:25.017Z,41.35
2022-08-31T17:59:53.181Z,41.64
2022-08-31T18:02:26.408Z,41.26
2022-08-31T18:04:53.356Z,41.54
2022-08-31T18:07:20.473Z,41.52
2022-08-31T18:09:47.106Z,41.70
2022-08-31T18:12:15.600Z,42.25
2022-08-31T18:14:42.161Z,41.89
2022-08-31T18:17:10.819Z,41.83
2022-08-31T18:19:38.312Z,42.38
2022-08-31T18:22:06.608Z,42.14
2022-08-31T18:24:36.100Z,42.04
2022-08-31T18:27:06.848Z,42.41
2022-08-31T18:29:35.799Z,41.84
2022-08-31T18:32:04.317Z,41.97
2022-08-31T18:34:33.938Z,42.23
2022-08-31T18:37:01.027Z,42.29
2022-08-31T18:39:51.102Z,41.90
2022-08-31T18:42:36.704Z,42.03
2022-08-31T18:45:19.380Z,42.14
2022-08-31T18:50:49.032Z,42.42
2022-08-31T18:53:28.496Z,42.35
2022-08-31T18:55:57.856Z,42.39
2022-08-31T18:58:24.311Z,42.50
2022-08-31T19:00:57.090Z,42.53
2022-08-31T19:03:25.502Z,42.53
2022-08-31T19:05:51.933Z,42.62
2022-08-31T19:08:19.268Z,42.71
2022-08-31T19:10:46.968Z,42.72
2022-08-31T19:13:15.844Z,42.31
2022-08-31T19:15:42.391Z,42.76
2022-08-31T19:18:08.892Z,42.81
2022-08-31T19:20:35.736Z,42.67
2022-08-31T19:23:02.414Z,43.01
2022-08-31T19:25:28.996Z,43.06
2022-08-31T19:27:55.657Z,42.86
2022-08-31T19:30:27.876Z,43.26
2022-08-31T19:32:56.041Z,43.26
2022-08-31T19:35:22.659Z,43.01
2022-08-31T19:37:51.583Z,43.76
2022-08-31T19:40:18.472Z,43.56
2022-08-31T19:43:42.769Z,43.93
2022-08-31T19:45:48.513Z,44.03
2022-08-31T19:48:17.308Z,44.53
2022-08-31T19:50:43.880Z,43.94
2022-08-31T19:53:13.478Z,44.40
2022-08-31T19:55:50.124Z,44.22
2022-08-31T19:58:19.255Z,44.42
2022-08-31T20:00:48.433Z,44.42
2022-08-31T20:03:15.783Z,45.04
2022-08-31T20:05:43.179Z,45.15
2022-08-31T20:08:10.256Z,45.54
2022-08-31T20:10:41.201Z,45.81
2022-08-31T20:13:09.805Z,45.46
2022-08-31T20:15:44.609Z,45.90
2022-08-31T20:18:12.448Z,45.96
2022-08-31T20:20:48.261Z,46.03
2022-08-31T20:23:17.320Z,46.31
2022-08-31T20:25:45.681Z,46.10
2022-08-31T20:28:13.633Z,46.06
2022-08-31T20:30:43.136Z,46.60
2022-08-31T20:33:11.180Z,46.56
2022-08-31T20:35:47.408Z,46.66
2022-08-31T20:38:16.364Z,46.69
2022-08-31T20:40:44.712Z,47.06
2022-08-31T20:43:13.274Z,47.20
2022-08-31T20:45:41.553Z,47.21
2022-08-31T20:48:27.614Z,47.37
2022-08-31T20:50:55.758Z,47.80
2022-08-31T20:53:24.944Z,47.97
2022-08-31T20:56:06.882Z,48.19
2022-08-31T20:58:33.509Z,48.57
2022-08-31T21:01:04.792Z,48.54
2022-08-31T21:03:31.457Z,48.00
2022-08-31T21:06:02.275Z,48.38
2022-08-31T21:08:29.163Z,48.55
2022-08-31T21:10:55.612Z,48.38
2022-08-31T21:13:22.033Z,49.03
2022-08-31T21:15:48.729Z,48.79
2022-08-31T21:18:18.965Z,49.00
2022-08-31T21:20:46.512Z,48.72
2022-08-31T21:23:13.336Z,48.84
2022-08-31T21:25:45.622Z,49.29
2022-08-31T21:28:14.610Z,49.13
2022-08-31T21:30:41.227Z,49.13
2022-08-31T21:33:07.797Z,49.08
2022-08-31T21:35:34.295Z,49.67
2022-08-31T21:38:03.093Z,49.09
2022-08-31T21:40:31.041Z,49.00
2022-08-31T21:42:57.880Z,48.89
2022-08-31T21:45:25.232Z,49.09
2022-08-31T21:47:51.732Z,48.90
2022-08-31T21:50:18.338Z,49.43
2022-08-31T21:52:44.851Z,49.26
2022-08-31T21:55:13.625Z,49.24
2022-08-31T21:57:40.790Z,48.92
2022-08-31T22:00:13.993Z,49.77
2022-08-31T22:02:46.680Z,49.78
2022-08-31T22:05:13.818Z,50.26
2022-08-31T22:07:40.535Z,50.06
2022-08-31T22:10:07.637Z,50.06
2022-08-31T22:12:34.168Z,50.11
2022-08-31T22:15:05.232Z,50.11
2022-08-31T22:17:55.781Z,50.15
2022-08-31T22:20:19.833Z,50.01
2022-08-31T22:22:46.983Z,50.59
2022-08-31T22:25:13.695Z,50.32
2022-08-31T22:27:40.201Z,50.26
2022-08-31T22:30:07.422Z,50.23
2022-08-31T22:32:34.037Z,50.26
2022-08-31T22:35:00.632Z,50.17
2022-08-31T22:37:27.112Z,50.16
2022-08-31T22:39:54.977Z,49.89
2022-08-31T22:42:21.446Z,50.05
2022-08-31T22:44:48.033Z,49.91
2022-08-31T22:47:14.637Z,49.90
2022-08-31T22:49:41.098Z,50.24
2022-08-31T22:52:07.615Z,49.86
2022-08-31T22:54:35.208Z,49.67
2022-08-31T22:57:01.776Z,49.91
2022-08-31T22:59:30.499Z,49.61
2022-08-31T23:02:03.250Z,49.54
2022-08-31T23:04:33.259Z,49.75
2022-08-31T23:07:01.358Z,49.75
2022-08-31T23:09:30.797Z,49.55
2022-08-31T23:11:59.910Z,49.62
2022-08-31T23:14:27.012Z,49.63
2022-08-31T23:16:57.121Z,49.93
2022-08-31T23:19:30.430Z,49.87
2022-08-31T23:21:58.314Z,50.00
2022-08-31T23:24:33.099Z,49.93
2022-08-31T23:27:04.395Z,49.40
2022-08-31T23:29:35.813Z,49.52
2022-08-31T23:32:04.239Z,49.64
2022-08-31T23:34:30.904Z,49.64
2022-08-31T23:36:57.538Z,49.56
2022-08-31T23:39:24.666Z,49.45
2022-08-31T23:41:53.989Z,49.61
2022-08-31T23:44:21.364Z,50.60
2022-08-31T23:46:49.104Z,50.06
2022-08-31T23:49:18.162Z,49.92
2022-08-31T23:51:44.852Z,50.00
2022-08-31T23:54:13.888Z,49.88
2022-08-31T23:56:42.335Z,51.30
2022-08-31T23:59:13.167Z,51.27
